Time;durP1;ratioP1;P1;durP2;ratioP2;P2;SDS_P1;SDS_P2;PMS_P1;PMS_P2;Temp;Humidity;BMP_temperature;BMP_pressure;BME280_temperature;BME280_humidity;BME280_pressure;Samples;Min_cycle;Max_cycle;Signal;HPM_P1;HPM_P2
2023/08/09 00:01:23;;;;;;;5.97;2.45;;;;;;;;;;4950229;28;93741;-82
2023/08/09 00:03:50;;;;;;;6.57;2.10;;;;;;;;;;4932275;28;92404;-83
2023/08/09 00:06:16;;;;;;;6.00;2.20;;;;;;;;;;4944423;28;93223;-83
2023/08/09 00:08:43;;;;;;;6.85;2.65;;;;;;;;;;4938251;28;95604;-83
2023/08/09 00:11:10;;;;;;;5.35;2.20;;;;;;;;;;4948087;28;92524;-83
2023/08/09 00:13:37;;;;;;;5.10;2.10;;;;;;;;;;4952193;28;92756;-83
2023/08/09 00:16:03;;;;;;;6.10;2.47;;;;;;;;;;4941931;28;93053;-82
2023/08/09 00:18:30;;;;;;;4.40;2.33;;;;;;;;;;4950604;28;92427;-82
2023/08/09 00:20:56;;;;;;;4.70;2.30;;;;;;;;;;4945971;28;92999;-82
2023/08/09 00:23:24;;;;;;;5.30;2.33;;;;;;;;;;4936799;28;92486;-82
2023/08/09 00:25:50;;;;;;;4.28;2.13;;;;;;;;;;4938379;28;95298;-83
2023/08/09 00:28:17;;;;;;;4.47;2.20;;;;;;;;;;4948771;28;94437;-82
2023/08/09 00:30:43;;;;;;;5.72;2.40;;;;;;;;;;4942009;28;92935;-83
2023/08/09 00:33:10;;;;;;;7.00;3.35;;;;;;;;;;4930299;28;95466;-82
2023/08/09 00:35:36;;;;;;;6.25;3.17;;;;;;;;;;4938603;28;93741;-83
2023/08/09 00:38:03;;;;;;;7.05;2.88;;;;;;;;;;4945329;28;93025;-83
2023/08/09 00:40:30;;;;;;;6.60;2.95;;;;;;;;;;4969439;28;93908;-83
2023/08/09 00:42:56;;;;;;;6.40;2.97;;;;;;;;;;4951895;28;92948;-82
2023/08/09 00:45:23;;;;;;;5.68;2.60;;;;;;;;;;4952104;28;93461;-82
2023/08/09 00:47:50;;;;;;;5.85;2.80;;;;;;;;;;4944177;28;93585;-83
2023/08/09 00:50:16;;;;;;;7.25;2.90;;;;;;;;;;4940553;28;91786;-83
2023/08/09 00:52:43;;;;;;;7.75;3.38;;;;;;;;;;4951164;28;94899;-82
2023/08/09 00:55:10;;;;;;;6.00;2.60;;;;;;;;;;4952630;28;93906;-83
2023/08/09 00:57:37;;;;;;;;;;;;;;;;;;4950185;28;95534;-83
2023/08/09 01:00:05;;;;;;;5.97;2.70;;;;;;;;;;4935312;28;111924;-81
2023/08/09 01:02:32;;;;;;;7.85;2.95;;;;;;;;;;4941614;28;92530;-82
2023/08/09 01:04:58;;;;;;;6.45;2.75;;;;;;;;;;4933257;28;93849;-82
2023/08/09 01:07:26;;;;;;;5.82;2.70;;;;;;;;;;4946199;28;93912;-82
2023/08/09 01:10:18;;;;;;;5.90;2.63;;;;;;;;;;4944764;28;92435;-82
2023/08/09 01:12:52;;;;;;;7.68;3.00;;;;;;;;;;4950466;28;92843;-82
2023/08/09 01:15:19;;;;;;;6.03;2.88;;;;;;;;;;4945742;28;92233;-83
2023/08/09 01:17:47;;;;;;;5.85;2.63;;;;;;;;;;4944532;28;93227;-83
2023/08/09 01:20:16;;;;;;;7.05;2.50;;;;;;;;;;4939629;28;93582;-83
2023/08/09 01:22:56;;;;;;;9.55;2.70;;;;;;;;;;4949052;28;96883;-83
2023/08/09 01:25:24;;;;;;;7.30;3.03;;;;;;;;;;4944151;28;94866;-83
2023/08/09 01:27:52;;;;;;;8.00;4.00;;;;;;;;;;4945236;28;93301;-84
2023/08/09 01:30:18;;;;;;;5.95;3.03;;;;;;;;;;4936598;28;92497;-83
2023/08/09 01:32:45;;;;;;;7.50;3.38;;;;;;;;;;4949134;28;92835;-83
2023/08/09 01:35:12;;;;;;;5.85;2.92;;;;;;;;;;4937753;28;93514;-83
2023/08/09 01:37:53;;;;;;;6.30;2.78;;;;;;;;;;4951295;28;92415;-83
2023/08/09 01:40:20;;;;;;;8.13;3.00;;;;;;;;;;4952050;28;93357;-83
2023/08/09 01:42:47;;;;;;;5.82;2.60;;;;;;;;;;4950268;28;93644;-83
2023/08/09 01:45:14;;;;;;;6.28;2.67;;;;;;;;;;4954215;28;92457;-83
2023/08/09 01:47:41;;;;;;;5.13;2.50;;;;;;;;;;4949282;28;95566;-84
2023/08/09 01:50:18;;;;;;;5.55;2.80;;;;;;;;;;4941072;28;92501;-83
2023/08/09 01:52:46;;;;;;;5.45;2.53;;;;;;;;;;4950948;28;92767;-83
2023/08/09 01:55:19;;;;;;;6.13;2.92;;;;;;;;;;4950703;28;92397;-83
2023/08/09 01:57:46;;;;;;;5.57;2.75;;;;;;;;;;4947052;28;92492;-83
2023/08/09 02:00:16;;;;;;;6.07;2.90;;;;;;;;;;4930914;28;95437;-84
2023/08/09 02:02:42;;;;;;;6.55;2.88;;;;;;;;;;4946393;28;94217;-83
2023/08/09 02:05:10;;;;;;;6.22;2.85;;;;;;;;;;4930942;28;91970;-82
2023/08/09 02:07:36;;;;;;;7.05;2.92;;;;;;;;;;4949073;28;92397;-82
2023/08/09 02:10:04;;;;;;;6.93;2.80;;;;;;;;;;4946905;28;92524;-82
2023/08/09 02:12:31;;;;;;;7.68;2.92;;;;;;;;;;4941320;28;95178;-82
2023/08/09 02:14:57;;;;;;;10.45;3.40;;;;;;;;;;4949796;28;96896;-81
2023/08/09 02:17:24;;;;;;;6.57;2.63;;;;;;;;;;4940623;28;93311;-82
2023/08/09 02:19:51;;;;;;;6.70;2.92;;;;;;;;;;4944181;28;92919;-82
2023/08/09 02:22:17;;;;;;;6.03;2.83;;;;;;;;;;4943503;28;94337;-81
2023/08/09 02:24:44;;;;;;;6.10;2.90;;;;;;;;;;4953918;28;92522;-82
2023/08/09 02:27:11;;;;;;;5.70;2.90;;;;;;;;;;4948360;28;93823;-81
2023/08/09 02:29:39;;;;;;;6.63;2.58;;;;;;;;;;4955761;28;94193;-81
2023/08/09 02:32:06;;;;;;;6.38;2.58;;;;;;;;;;4947090;28;93069;-82
2023/08/09 02:34:33;;;;;;;6.40;2.78;;;;;;;;;;4940666;28;93261;-82
2023/08/09 02:36:59;;;;;;;5.50;2.80;;;;;;;;;;4942202;28;94826;-82
2023/08/09 02:39:27;;;;;;;;;;;;;;;;;;4953885;28;96424;-82
2023/08/09 02:41:53;;;;;;;7.63;2.80;;;;;;;;;;4926462;28;95438;-81
2023/08/09 02:44:20;;;;;;;6.05;2.75;;;;;;;;;;4954138;28;92728;-82
2023/08/09 02:46:46;;;;;;;5.43;2.58;;;;;;;;;;4952207;28;94001;-82
2023/08/09 02:49:13;;;;;;;6.93;3.05;;;;;;;;;;4951764;28;96272;-82
2023/08/09 02:51:40;;;;;;;5.75;2.80;;;;;;;;;;4946462;28;93331;-82
2023/08/09 02:54:06;;;;;;;6.53;3.05;;;;;;;;;;4948870;28;92330;-82
2023/08/09 02:56:33;;;;;;;6.50;3.13;;;;;;;;;;4945945;28;92472;-83
2023/08/09 02:58:59;;;;;;;6.95;3.05;;;;;;;;;;4945841;28;94927;-83
2023/08/09 03:01:29;;;;;;;7.20;2.92;;;;;;;;;;4949431;28;97832;-83
2023/08/09 03:03:56;;;;;;;5.53;2.45;;;;;;;;;;4939594;28;92539;-83
2023/08/09 03:06:25;;;;;;;5.93;2.60;;;;;;;;;;4951693;28;93928;-82
2023/08/09 03:08:52;;;;;;;7.65;2.60;;;;;;;;;;4942491;28;92977;-82
2023/08/09 03:11:23;;;;;;;4.55;2.25;;;;;;;;;;4938644;28;93047;-83
2023/08/09 03:13:51;;;;;;;6.68;2.17;;;;;;;;;;4950151;28;95445;-83
2023/08/09 03:16:18;;;;;;;;;;;;;;;;;;4952785;28;92463;-83
2023/08/09 03:18:45;;;;;;;5.88;2.50;;;;;;;;;;4954816;28;102316;-83
2023/08/09 03:21:13;;;;;;;4.00;2.08;;;;;;;;;;4940715;28;95202;-82
2023/08/09 03:23:39;;;;;;;4.63;2.08;;;;;;;;;;4943907;28;92501;-82
2023/08/09 03:26:06;;;;;;;5.63;2.28;;;;;;;;;;4951618;28;94919;-82
2023/08/09 03:28:33;;;;;;;5.43;2.55;;;;;;;;;;4951291;28;95764;-83
2023/08/09 03:31:03;;;;;;;5.53;2.25;;;;;;;;;;4950516;28;93286;-82
2023/08/09 03:33:34;;;;;;;4.82;2.20;;;;;;;;;;4939159;28;93958;-83
2023/08/09 03:36:00;;;;;;;5.45;2.20;;;;;;;;;;4936715;28;92496;-82
2023/08/09 03:38:27;;;;;;;4.55;1.92;;;;;;;;;;4952801;28;92841;-81
2023/08/09 03:40:53;;;;;;;4.63;2.03;;;;;;;;;;4952707;28;92350;-82
2023/08/09 03:43:21;;;;;;;4.55;2.10;;;;;;;;;;4951581;28;92363;-82
2023/08/09 03:45:48;;;;;;;4.82;1.92;;;;;;;;;;4950856;28;94802;-82
2023/08/09 03:48:16;;;;;;;5.13;2.10;;;;;;;;;;4950564;28;96123;-81
2023/08/09 03:50:43;;;;;;;4.25;2.00;;;;;;;;;;4938258;28;94875;-82
2023/08/09 03:53:09;;;;;;;5.18;1.83;;;;;;;;;;4935666;28;98235;-81
2023/08/09 03:55:38;;;;;;;4.55;1.88;;;;;;;;;;4938130;28;94413;-82
2023/08/09 03:58:05;;;;;;;4.15;2.00;;;;;;;;;;4944022;28;95901;-82
2023/08/09 04:00:32;;;;;;;3.75;1.83;;;;;;;;;;4952206;28;93073;-82
2023/08/09 04:02:59;;;;;;;2.95;1.70;;;;;;;;;;4941676;28;92547;-82
2023/08/09 04:05:26;;;;;;;3.65;1.85;;;;;;;;;;4935031;28;95286;-82
2023/08/09 04:07:53;;;;;;;4.88;2.10;;;;;;;;;;4925386;28;92459;-82
2023/08/09 04:10:19;;;;;;;3.70;1.80;;;;;;;;;;4946384;28;92465;-82
2023/08/09 04:12:46;;;;;;;4.55;1.90;;;;;;;;;;4937137;28;92512;-82
2023/08/09 04:15:13;;;;;;;4.32;1.92;;;;;;;;;;4944337;28;98273;-82
2023/08/09 04:17:40;;;;;;;3.97;1.98;;;;;;;;;;4952476;28;92820;-82
2023/08/09 04:20:09;;;;;;;4.13;1.88;;;;;;;;;;4938332;28;93069;-82
2023/08/09 04:22:38;;;;;;;6.55;2.88;;;;;;;;;;4947881;28;92341;-82
2023/08/09 04:25:05;;;;;;;4.68;2.17;;;;;;;;;;4952264;28;92753;-82
2023/08/09 04:27:33;;;;;;;4.53;2.17;;;;;;;;;;4951785;28;93166;-82
2023/08/09 04:30:00;;;;;;;5.82;2.28;;;;;;;;;;4950900;28;92555;-82
2023/08/09 04:32:27;;;;;;;4.95;2.10;;;;;;;;;;4942335;28;93195;-83
2023/08/09 04:34:53;;;;;;;4.38;1.80;;;;;;;;;;4937779;28;94819;-82
2023/08/09 04:37:20;;;;;;;4.72;2.10;;;;;;;;;;4943560;28;93006;-83
2023/08/09 04:39:46;;;;;;;4.63;1.95;;;;;;;;;;4953118;28;95604;-83
2023/08/09 04:42:13;;;;;;;5.55;2.53;;;;;;;;;;4954410;28;92537;-83
2023/08/09 04:44:40;;;;;;;4.07;2.00;;;;;;;;;;4954953;28;92765;-83
2023/08/09 04:47:06;;;;;;;4.65;2.08;;;;;;;;;;4962691;28;93499;-82
2023/08/09 04:49:33;;;;;;;5.55;2.00;;;;;;;;;;4959602;28;92416;-84
2023/08/09 04:51:59;;;;;;;5.10;1.90;;;;;;;;;;4944306;28;92831;-83
2023/08/09 04:54:26;;;;;;;4.45;1.80;;;;;;;;;;4957401;28;95227;-82
2023/08/09 04:56:52;;;;;;;4.90;1.83;;;;;;;;;;4965059;28;91794;-83
2023/08/09 04:59:19;;;;;;;6.72;3.20;;;;;;;;;;4954927;28;92389;-83
2023/08/09 05:01:45;;;;;;;4.25;1.80;;;;;;;;;;4938844;28;92456;-83
2023/08/09 05:04:12;;;;;;;5.88;1.90;;;;;;;;;;4945580;28;95548;-83
2023/08/09 05:06:40;;;;;;;3.28;1.60;;;;;;;;;;4943667;28;92877;-82
2023/08/09 05:09:06;;;;;;;4.10;2.00;;;;;;;;;;4943216;28;92513;-83
2023/08/09 05:11:33;;;;;;;4.72;2.03;;;;;;;;;;4951084;28;92959;-83
2023/08/09 05:13:59;;;;;;;4.43;2.05;;;;;;;;;;4951255;28;93074;-82
2023/08/09 05:16:26;;;;;;;5.70;2.60;;;;;;;;;;4936991;28;92510;-83
2023/08/09 05:18:53;;;;;;;5.10;2.20;;;;;;;;;;4951237;28;93419;-82
2023/08/09 05:21:19;;;;;;;6.43;2.10;;;;;;;;;;4941256;28;92510;-82
2023/08/09 05:23:46;;;;;;;4.05;1.90;;;;;;;;;;4952864;28;92839;-82
2023/08/09 05:26:12;;;;;;;5.60;2.10;;;;;;;;;;4947370;28;93123;-82
2023/08/09 05:28:39;;;;;;;6.00;2.03;;;;;;;;;;4934681;28;95265;-83
2023/08/09 05:31:05;;;;;;;7.68;3.80;;;;;;;;;;4930037;28;97732;-82
2023/08/09 05:33:32;;;;;;;5.88;2.60;;;;;;;;;;4936394;28;94821;-83
2023/08/09 05:35:59;;;;;;;5.15;2.30;;;;;;;;;;4929788;28;92518;-83
2023/08/09 05:38:26;;;;;;;6.32;2.90;;;;;;;;;;4950093;28;93297;-82
2023/08/09 05:40:53;;;;;;;4.18;2.20;;;;;;;;;;4950396;28;93110;-81
2023/08/09 05:43:20;;;;;;;5.55;2.10;;;;;;;;;;4948564;28;92553;-81
2023/08/09 05:45:47;;;;;;;4.55;1.98;;;;;;;;;;4943916;28;92417;-81
2023/08/09 05:48:13;;;;;;;5.18;2.00;;;;;;;;;;4930954;28;92647;-82
2023/08/09 05:50:40;;;;;;;4.55;2.00;;;;;;;;;;4943145;28;95579;-82
2023/08/09 05:53:09;;;;;;;5.15;2.10;;;;;;;;;;4939939;28;95770;-82
2023/08/09 05:55:36;;;;;;;5.82;2.30;;;;;;;;;;4937777;28;92939;-83
2023/08/09 05:58:03;;;;;;;5.95;2.47;;;;;;;;;;4954855;28;93228;-83
2023/08/09 06:00:30;;;;;;;5.65;2.50;;;;;;;;;;4940026;28;93178;-84
2023/08/09 06:02:57;;;;;;;6.97;2.22;;;;;;;;;;4945476;28;93845;-82
2023/08/09 06:05:27;;;;;;;6.55;3.20;;;;;;;;;;4956311;28;92890;-82
2023/08/09 06:07:53;;;;;;;6.07;2.58;;;;;;;;;;4930272;28;92407;-83
2023/08/09 06:10:20;;;;;;;5.65;2.20;;;;;;;;;;4952981;28;92862;-82
2023/08/09 06:13:05;;;;;;;5.13;2.50;;;;;;;;;;4925067;28;93226;-83
2023/08/09 06:15:31;;;;;;;7.75;4.00;;;;;;;;;;4953470;28;92512;-83
2023/08/09 06:17:58;;;;;;;4.53;2.00;;;;;;;;;;4968957;28;95320;-83
2023/08/09 06:20:27;;;;;;;4.75;2.20;;;;;;;;;;4969187;28;92076;-83
2023/08/09 06:22:54;;;;;;;6.05;2.50;;;;;;;;;;4977259;28;91916;-83
2023/08/09 06:25:21;;;;;;;5.45;2.50;;;;;;;;;;4968048;28;91826;-84
2023/08/09 06:27:48;;;;;;;5.70;2.60;;;;;;;;;;4975122;28;92068;-84
2023/08/09 06:30:14;;;;;;;5.60;2.25;;;;;;;;;;4958060;28;92326;-84
2023/08/09 06:32:41;;;;;;;7.25;2.60;;;;;;;;;;4955013;28;92537;-83
2023/08/09 06:35:09;;;;;;;6.30;2.70;;;;;;;;;;4973656;28;91619;-83
2023/08/09 06:37:36;;;;;;;6.55;2.50;;;;;;;;;;4960004;28;92398;-83
2023/08/09 06:40:06;;;;;;;8.23;2.40;;;;;;;;;;4960484;28;92609;-84
2023/08/09 06:42:33;;;;;;;7.82;2.92;;;;;;;;;;4941182;28;94958;-84
2023/08/09 06:45:04;;;;;;;6.68;2.63;;;;;;;;;;4950915;28;97658;-84
2023/08/09 06:47:31;;;;;;;7.68;3.22;;;;;;;;;;4942822;28;94247;-83
2023/08/09 06:49:58;;;;;;;7.78;2.83;;;;;;;;;;4943235;28;93107;-83
2023/08/09 06:52:24;;;;;;;5.07;2.47;;;;;;;;;;4935464;28;93074;-83
2023/08/09 06:54:51;;;;;;;8.23;3.42;;;;;;;;;;4947867;28;92832;-82
2023/08/09 06:57:19;;;;;;;5.13;2.30;;;;;;;;;;4952888;28;94330;-81
2023/08/09 06:59:47;;;;;;;6.47;2.80;;;;;;;;;;4940481;28;93388;-82
2023/08/09 07:02:14;;;;;;;6.72;2.90;;;;;;;;;;4951131;28;92487;-82
2023/08/09 07:04:41;;;;;;;8.40;3.50;;;;;;;;;;4953279;28;92774;-82
2023/08/09 07:07:08;;;;;;;8.07;3.17;;;;;;;;;;4945383;28;95941;-81
2023/08/09 07:09:34;;;;;;;7.13;2.72;;;;;;;;;;4940142;28;92396;-82
2023/08/09 07:12:01;;;;;;;7.22;2.58;;;;;;;;;;4959902;28;94120;-84
2023/08/09 07:14:27;;;;;;;6.97;2.40;;;;;;;;;;4955454;28;92504;-84
2023/08/09 07:16:54;;;;;;;7.68;2.30;;;;;;;;;;4940746;28;92916;-84
2023/08/09 07:19:21;;;;;;;6.18;2.40;;;;;;;;;;4953643;28;93160;-85
2023/08/09 07:21:48;;;;;;;5.63;2.20;;;;;;;;;;4945105;28;92462;-86
2023/08/09 07:24:14;;;;;;;6.20;2.45;;;;;;;;;;4945169;28;92672;-84
2023/08/09 07:26:41;;;;;;;7.25;2.42;;;;;;;;;;4952944;28;93681;-85
2023/08/09 07:29:08;;;;;;;5.82;2.67;;;;;;;;;;4952931;28;92968;-84
2023/08/09 07:31:35;;;;;;;5.72;2.63;;;;;;;;;;4951371;28;94859;-85
2023/08/09 07:34:02;;;;;;;8.55;3.05;;;;;;;;;;4936761;28;93070;-85
2023/08/09 07:36:28;;;;;;;8.60;4.38;;;;;;;;;;4946559;28;94614;-84
2023/08/09 07:38:55;;;;;;;11.10;5.70;;;;;;;;;;4937782;28;93183;-85
2023/08/09 07:41:22;;;;;;;11.80;5.80;;;;;;;;;;4943167;28;93009;-84
2023/08/09 07:43:48;;;;;;;7.90;3.95;;;;;;;;;;4951559;28;92972;-85
2023/08/09 07:46:15;;;;;;;9.77;4.85;;;;;;;;;;4941713;28;93141;-85
2023/08/09 07:48:41;;;;;;;8.18;3.95;;;;;;;;;;4940635;28;91706;-85
2023/08/09 07:51:11;;;;;;;9.32;3.90;;;;;;;;;;4938563;28;92527;-85
2023/08/09 07:53:39;;;;;;;10.23;5.63;;;;;;;;;;4955016;28;93092;-84
2023/08/09 07:56:05;;;;;;;9.18;4.70;;;;;;;;;;4939912;28;95761;-85
2023/08/09 07:58:32;;;;;;;8.77;4.43;;;;;;;;;;4943948;28;94817;-84
2023/08/09 08:00:59;;;;;;;7.32;3.22;;;;;;;;;;4949641;28;92640;-84
2023/08/09 08:03:25;;;;;;;9.93;5.32;;;;;;;;;;4943304;28;93796;-85
2023/08/09 08:05:52;;;;;;;9.93;5.18;;;;;;;;;;4949654;28;92998;-85
2023/08/09 08:08:18;;;;;;;9.52;5.43;;;;;;;;;;4952359;28;92413;-86
2023/08/09 08:10:45;;;;;;;11.73;5.13;;;;;;;;;;4951143;28;93443;-85
2023/08/09 08:13:12;;;;;;;7.93;4.15;;;;;;;;;;4952903;28;92193;-85
2023/08/09 08:15:39;;;;;;;8.77;3.65;;;;;;;;;;4955497;28;92398;-85
2023/08/09 08:18:06;;;;;;;9.05;3.67;;;;;;;;;;4941385;28;93242;-85
2023/08/09 08:20:33;;;;;;;7.40;3.15;;;;;;;;;;4930708;28;94918;-84
2023/08/09 08:23:00;;;;;;;8.27;3.70;;;;;;;;;;4952182;28;95579;-85
2023/08/09 08:25:26;;;;;;;9.23;4.15;;;;;;;;;;4942647;28;92456;-85
2023/08/09 08:27:53;;;;;;;8.20;3.83;;;;;;;;;;4941957;28;92830;-84
2023/08/09 08:30:21;;;;;;;7.57;2.80;;;;;;;;;;4936425;28;92553;-85
2023/08/09 08:32:48;;;;;;;8.85;3.70;;;;;;;;;;4937502;28;93051;-85
2023/08/09 08:35:19;;;;;;;8.60;3.50;;;;;;;;;;4944264;28;92575;-84
2023/08/09 08:37:47;;;;;;;7.20;3.10;;;;;;;;;;4934495;28;91807;-85
2023/08/09 08:40:23;;;;;;;7.22;3.20;;;;;;;;;;4947608;28;92366;-79
2023/08/09 08:42:50;;;;;;;7.22;3.35;;;;;;;;;;4952308;28;92362;-79
2023/08/09 08:45:19;;;;;;;9.00;3.40;;;;;;;;;;4950741;28;97556;-80
2023/08/09 08:47:47;;;;;;;6.32;3.30;;;;;;;;;;4952172;28;93188;-80
2023/08/09 08:50:15;;;;;;;8.05;2.80;;;;;;;;;;4942181;28;92921;-80
2023/08/09 08:52:42;;;;;;;7.30;3.60;;;;;;;;;;4939195;28;93599;-79
2023/08/09 08:55:09;;;;;;;9.40;3.22;;;;;;;;;;4950224;28;92582;-79
2023/08/09 08:57:37;;;;;;;5.55;2.60;;;;;;;;;;4944425;28;92866;-79
2023/08/09 09:00:08;;;;;;;7.03;2.78;;;;;;;;;;4943731;28;93143;-80
2023/08/09 09:02:46;;;;;;;9.60;2.85;;;;;;;;;;4940847;28;92724;-77
2023/08/09 09:05:13;;;;;;;6.03;2.50;;;;;;;;;;4934366;28;93826;-75
2023/08/09 09:07:42;;;;;;;5.65;1.92;;;;;;;;;;4943532;28;93096;-77
2023/08/09 09:10:09;;;;;;;5.25;1.80;;;;;;;;;;4944481;28;94935;-77
2023/08/09 09:12:37;;;;;;;7.35;2.70;;;;;;;;;;4940354;28;92881;-77
2023/08/09 09:15:04;;;;;;;7.68;2.45;;;;;;;;;;4935092;28;92890;-76
2023/08/09 09:17:37;;;;;;;5.65;2.90;;;;;;;;;;4937574;28;92877;-77
2023/08/09 09:20:09;;;;;;;7.00;2.40;;;;;;;;;;4932516;28;94015;-77
2023/08/09 09:22:36;;;;;;;6.07;2.15;;;;;;;;;;4944124;28;92375;-77
2023/08/09 09:25:06;;;;;;;5.72;2.30;;;;;;;;;;4949366;28;93305;-77
2023/08/09 09:27:33;;;;;;;5.18;2.10;;;;;;;;;;4938913;28;93521;-77
2023/08/09 09:30:04;;;;;;;6.20;2.33;;;;;;;;;;4928366;28;92578;-77
2023/08/09 09:32:33;;;;;;;5.10;2.30;;;;;;;;;;4940862;28;93231;-77
2023/08/09 09:35:00;;;;;;;5.32;2.60;;;;;;;;;;4932257;28;95052;-77
2023/08/09 09:37:28;;;;;;;6.75;2.10;;;;;;;;;;4931094;28;97195;-77
2023/08/09 09:39:54;;;;;;;7.03;2.90;;;;;;;;;;4933972;28;95875;-77
2023/08/09 09:42:29;;;;;;;6.00;2.45;;;;;;;;;;4943394;28;92685;-77
2023/08/09 09:45:03;;;;;;;6.65;2.70;;;;;;;;;;4938252;28;92668;-77
2023/08/09 09:47:31;;;;;;;6.75;2.90;;;;;;;;;;4923662;28;92754;-77
2023/08/09 09:49:57;;;;;;;5.80;2.85;;;;;;;;;;4929887;28;93370;-77
2023/08/09 09:52:24;;;;;;;8.63;3.17;;;;;;;;;;4942383;28;92834;-77
2023/08/09 09:54:53;;;;;;;7.38;3.35;;;;;;;;;;4949244;28;92533;-77
2023/08/09 09:57:19;;;;;;;6.43;3.13;;;;;;;;;;4935644;28;95485;-77
2023/08/09 09:59:46;;;;;;;6.45;2.95;;;;;;;;;;4947485;28;95789;-77
2023/08/09 10:02:13;;;;;;;6.95;3.00;;;;;;;;;;4944131;28;92483;-77
2023/08/09 10:04:40;;;;;;;;;;;;;;;;;;4941286;28;94639;-78
2023/08/09 10:07:07;;;;;;;9.10;3.08;;;;;;;;;;4941110;28;101061;-77
2023/08/09 10:09:34;;;;;;;5.95;2.72;;;;;;;;;;4942322;28;92973;-77
2023/08/09 10:12:03;;;;;;;6.15;2.55;;;;;;;;;;4933619;28;93667;-76
2023/08/09 10:14:31;;;;;;;5.57;3.00;;;;;;;;;;4946576;28;92682;-79
2023/08/09 10:16:59;;;;;;;5.60;2.78;;;;;;;;;;4940859;28;94113;-76
2023/08/09 10:19:43;;;;;;;5.88;2.60;;;;;;;;;;4930703;28;93348;-77
2023/08/09 10:22:11;;;;;;;6.78;3.00;;;;;;;;;;4930399;28;92560;-76
2023/08/09 10:24:44;;;;;;;6.53;2.80;;;;;;;;;;4936268;28;95044;-77
2023/08/09 10:27:11;;;;;;;7.60;3.20;;;;;;;;;;4942406;28;94356;-81
2023/08/09 10:29:40;;;;;;;7.40;3.40;;;;;;;;;;4949770;28;92369;-79
2023/08/09 10:32:08;;;;;;;6.68;2.80;;;;;;;;;;4943449;28;93519;-77
2023/08/09 10:34:36;;;;;;;4.80;2.20;;;;;;;;;;4932622;28;92348;-77
2023/08/09 10:37:04;;;;;;;7.57;3.10;;;;;;;;;;4933196;28;96203;-79
2023/08/09 10:39:31;;;;;;;6.53;2.70;;;;;;;;;;4934394;28;92756;-78
2023/08/09 10:41:59;;;;;;;6.75;2.47;;;;;;;;;;4945885;28;91787;-82
2023/08/09 10:44:45;;;;;;;6.30;2.47;;;;;;;;;;4943818;28;92576;-82
2023/08/09 10:47:12;;;;;;;;;;;;;;;;;;4941902;28;93119;-77
2023/08/09 10:49:45;;;;;;;4.90;2.30;;;;;;;;;;4939755;28;94893;-77
2023/08/09 10:52:13;;;;;;;5.80;2.40;;;;;;;;;;4934380;28;93204;-77
2023/08/09 10:54:45;;;;;;;6.82;2.70;;;;;;;;;;4947637;28;92425;-78
2023/08/09 10:57:12;;;;;;;6.60;3.00;;;;;;;;;;4949673;28;93370;-80
2023/08/09 10:59:39;;;;;;;7.22;2.42;;;;;;;;;;4945527;28;93058;-78
2023/08/09 11:02:06;;;;;;;;;;;;;;;;;;4946709;28;92620;-78
2023/08/09 11:04:33;;;;;;;7.05;2.33;;;;;;;;;;4950063;28;100125;-78
2023/08/09 11:07:00;;;;;;;4.80;2.28;;;;;;;;;;4948108;28;92421;-78
2023/08/09 11:09:27;;;;;;;6.53;2.53;;;;;;;;;;4948829;28;93251;-78
2023/08/09 11:11:53;;;;;;;4.10;2.05;;;;;;;;;;4950790;28;95186;-78
2023/08/09 11:14:21;;;;;;;7.00;1.95;;;;;;;;;;4950197;28;95324;-78
2023/08/09 11:16:48;;;;;;;4.00;1.60;;;;;;;;;;4946473;28;96546;-78
2023/08/09 11:19:19;;;;;;;4.32;1.60;;;;;;;;;;4943194;28;93511;-78
2023/08/09 11:22:01;;;;;;;3.95;1.52;;;;;;;;;;4931583;28;94328;-79
2023/08/09 11:24:29;;;;;;;5.47;1.60;;;;;;;;;;4949331;28;92891;-79
2023/08/09 11:26:58;;;;;;;4.15;1.50;;;;;;;;;;4942469;28;93337;-78
2023/08/09 11:29:26;;;;;;;6.10;1.80;;;;;;;;;;4949387;28;92480;-80
2023/08/09 11:31:53;;;;;;;4.72;1.60;;;;;;;;;;4935726;28;93419;-78
2023/08/09 11:34:21;;;;;;;4.03;1.88;;;;;;;;;;4931009;28;93631;-78
2023/08/09 11:36:47;;;;;;;;;;;;;;;;;;4942645;28;92880;-78
2023/08/09 11:39:14;;;;;;;2.88;1.50;;;;;;;;;;4947950;28;95634;-78
2023/08/09 11:41:46;;;;;;;4.25;1.58;;;;;;;;;;4941082;28;92824;-78
2023/08/09 11:44:15;;;;;;;5.15;1.67;;;;;;;;;;4948803;28;93126;-79
2023/08/09 11:46:45;;;;;;;4.60;1.40;;;;;;;;;;4945781;28;93118;-78
2023/08/09 11:49:12;;;;;;;5.28;1.60;;;;;;;;;;4937907;28;92513;-78
2023/08/09 11:51:39;;;;;;;4.35;1.50;;;;;;;;;;4932524;28;94667;-78
2023/08/09 11:54:09;;;;;;;3.72;1.30;;;;;;;;;;4935744;28;93610;-83
2023/08/09 11:56:36;;;;;;;4.60;1.50;;;;;;;;;;4952201;28;92722;-82
2023/08/09 11:59:04;;;;;;;3.40;1.38;;;;;;;;;;4951362;28;93129;-82
2023/08/09 12:01:38;;;;;;;5.30;1.40;;;;;;;;;;4950521;28;92816;-82
2023/08/09 12:04:08;;;;;;;2.65;1.33;;;;;;;;;;4937183;28;94828;-82
2023/08/09 12:06:39;;;;;;;4.05;1.60;;;;;;;;;;4943476;28;93138;-82
2023/08/09 12:09:34;;;;;;;4.75;1.60;;;;;;;;;;4945207;28;92530;-82
2023/08/09 12:12:08;;;;;;;3.35;1.30;;;;;;;;;;4953467;28;93394;-82
2023/08/09 12:14:36;;;;;;;4.15;1.42;;;;;;;;;;4953794;28;93058;-82
2023/08/09 12:17:03;;;;;;;3.28;1.45;;;;;;;;;;4937995;28;92483;-81
2023/08/09 12:19:30;;;;;;;4.05;1.45;;;;;;;;;;4946025;28;95837;-82
2023/08/09 12:21:59;;;;;;;4.00;1.42;;;;;;;;;;4943045;28;92808;-82
2023/08/09 12:24:27;;;;;;;4.90;1.40;;;;;;;;;;4935104;28;92981;-82
2023/08/09 12:26:54;;;;;;;3.97;1.30;;;;;;;;;;4951076;28;93069;-83
2023/08/09 12:29:20;;;;;;;3.58;1.35;;;;;;;;;;4949316;28;95309;-82
2023/08/09 12:31:47;;;;;;;5.50;1.58;;;;;;;;;;4934304;28;98038;-85
2023/08/09 12:34:14;;;;;;;4.38;1.30;;;;;;;;;;4947780;28;93267;-87
2023/08/09 12:36:40;;;;;;;4.95;1.60;;;;;;;;;;4943899;28;92723;-82
2023/08/09 12:39:14;;;;;;;5.22;1.50;;;;;;;;;;4948867;28;93086;-81
2023/08/09 12:41:41;;;;;;;2.65;1.40;;;;;;;;;;4954250;28;92434;-81
2023/08/09 12:44:07;;;;;;;;;;;;;;;;;;4945243;28;93092;-81
2023/08/09 12:46:34;;;;;;;4.22;1.30;;;;;;;;;;4940041;28;100495;-82
2023/08/09 12:49:02;;;;;;;4.88;1.30;;;;;;;;;;4951668;28;92485;-82
2023/08/09 12:51:28;;;;;;;4.05;1.33;;;;;;;;;;4940937;28;93358;-80
2023/08/09 12:53:56;;;;;;;3.95;1.45;;;;;;;;;;4948169;28;98065;-83
2023/08/09 12:56:23;;;;;;;3.45;1.05;;;;;;;;;;4949985;28;92557;-80
2023/08/09 12:58:51;;;;;;;2.50;1.30;;;;;;;;;;4946474;28;92684;-79
2023/08/09 13:01:18;;;;;;;3.10;1.40;;;;;;;;;;4944681;28;94911;-80
2023/08/09 13:03:45;;;;;;;4.07;1.27;;;;;;;;;;4949753;28;92696;-81
2023/08/09 13:06:13;;;;;;;9.05;1.45;;;;;;;;;;4951004;28;93755;-82
2023/08/09 13:08:40;;;;;;;4.53;1.40;;;;;;;;;;4939049;28;92399;-83
2023/08/09 13:11:07;;;;;;;4.50;1.40;;;;;;;;;;4937280;28;92949;-82
2023/08/09 13:13:33;;;;;;;;;;;;;;;;;;4939990;28;94749;-80
2023/08/09 13:16:00;;;;;;;4.72;1.35;;;;;;;;;;4943231;28;92550;-82
2023/08/09 13:18:28;;;;;;;4.93;1.70;;;;;;;;;;4950750;28;95366;-80
2023/08/09 13:20:55;;;;;;;4.70;1.30;;;;;;;;;;4936151;28;93167;-81
2023/08/09 13:23:22;;;;;;;4.95;1.38;;;;;;;;;;4942423;28;92442;-82
2023/08/09 13:25:49;;;;;;;3.85;1.25;;;;;;;;;;4951230;28;93592;-82
2023/08/09 13:28:16;;;;;;;;;;;;;;;;;;4942200;28;94343;-81
2023/08/09 13:30:42;;;;;;;5.13;1.40;;;;;;;;;;4955240;28;106351;-80
2023/08/09 13:33:10;;;;;;;9.40;1.30;;;;;;;;;;4943140;28;94721;-81
2023/08/09 13:35:37;;;;;;;3.53;1.17;;;;;;;;;;4946416;28;91739;-82
2023/08/09 13:38:04;;;;;;;13.93;1.88;;;;;;;;;;4940535;28;92395;-80
2023/08/09 13:40:31;;;;;;;;;;;;;;;;;;4951572;28;92852;-80
2023/08/09 13:42:57;;;;;;;7.22;1.50;;;;;;;;;;4936466;28;99211;-81
2023/08/09 13:45:24;;;;;;;3.70;1.20;;;;;;;;;;4944983;28;96423;-81
2023/08/09 13:47:51;;;;;;;5.45;1.70;;;;;;;;;;4943790;28;92523;-81
2023/08/09 13:50:17;;;;;;;5.00;1.60;;;;;;;;;;4949150;28;93251;-81
2023/08/09 13:52:44;;;;;;;3.85;1.45;;;;;;;;;;4943694;28;93266;-82
2023/08/09 13:55:10;;;;;;;5.15;1.55;;;;;;;;;;4931945;28;92913;-82
2023/08/09 13:57:37;;;;;;;4.45;1.40;;;;;;;;;;4929378;28;95507;-82
2023/08/09 14:00:06;;;;;;;5.40;1.50;;;;;;;;;;4924402;28;94577;-82
2023/08/09 14:02:34;;;;;;;4.30;1.30;;;;;;;;;;4931653;28;92616;-81
2023/08/09 14:05:00;;;;;;;4.15;1.17;;;;;;;;;;4935188;28;94600;-81
2023/08/09 14:07:27;;;;;;;4.95;1.33;;;;;;;;;;4947779;28;95430;-81
2023/08/09 14:09:54;;;;;;;5.18;1.30;;;;;;;;;;4951199;28;95204;-82
2023/08/09 14:12:20;;;;;;;7.03;1.30;;;;;;;;;;4957973;28;93127;-82
2023/08/09 14:14:47;;;;;;;3.58;1.40;;;;;;;;;;4959359;28;92376;-80
2023/08/09 14:17:13;;;;;;;6.25;1.58;;;;;;;;;;4942309;28;93340;-80
2023/08/09 14:19:40;;;;;;;5.30;1.30;;;;;;;;;;4954966;28;92537;-80
2023/08/09 14:22:06;;;;;;;4.35;1.30;;;;;;;;;;4961051;28;92516;-82
2023/08/09 14:24:33;;;;;;;5.03;1.50;;;;;;;;;;4959897;28;93133;-80
2023/08/09 14:27:00;;;;;;;4.70;1.38;;;;;;;;;;4952248;28;93109;-81
2023/08/09 14:29:27;;;;;;;;;;;;;;;;;;4962473;28;91654;-82
2023/08/09 14:31:54;;;;;;;5.43;1.52;;;;;;;;;;4961191;28;108084;-81
2023/08/09 14:34:21;;;;;;;3.97;1.50;;;;;;;;;;4969524;28;92843;-81
2023/08/09 14:36:47;;;;;;;4.78;1.55;;;;;;;;;;4960152;28;92940;-81
2023/08/09 14:39:14;;;;;;;9.32;1.60;;;;;;;;;;4953270;28;92505;-81
2023/08/09 14:41:40;;;;;;;5.18;1.60;;;;;;;;;;4970825;28;92406;-80
2023/08/09 14:44:07;;;;;;;5.85;1.42;;;;;;;;;;4966394;28;92910;-80
2023/08/09 14:46:35;;;;;;;4.53;1.27;;;;;;;;;;4972859;28;92442;-81
2023/08/09 14:49:02;;;;;;;4.35;1.20;;;;;;;;;;4970552;28;91746;-80